createdAt,value
2023-04-16T00:03:16.364Z,20.99
2023-04-16T00:18:18.301Z,21.03
2023-04-16T00:33:20.092Z,21.05
2023-04-16T00:48:21.790Z,21.07
2023-04-16T01:03:31.219Z,21.10
2023-04-16T01:18:33.187Z,21.11
2023-04-16T01:33:34.881Z,21.13
2023-04-16T01:48:36.678Z,21.14
2023-04-16T02:03:38.583Z,21.16
2023-04-16T02:18:40.478Z,21.16
2023-04-16T02:33:42.156Z,21.17
2023-04-16T02:48:43.833Z,21.16
2023-04-16T03:03:45.592Z,21.18
2023-04-16T03:18:47.376Z,21.19
2023-04-16T03:33:49.016Z,21.20
2023-04-16T03:48:50.672Z,21.21
2023-04-16T04:03:52.520Z,21.21
2023-04-16T04:18:54.375Z,21.23
2023-04-16T04:33:56.120Z,21.21
2023-04-16T04:48:57.794Z,21.23
2023-04-16T05:03:59.511Z,21.24
2023-04-16T05:19:01.305Z,21.25
2023-04-16T05:34:03.028Z,21.25
2023-04-16T05:49:04.697Z,21.24
2023-04-16T06:04:06.589Z,21.27
2023-04-16T06:19:08.944Z,21.26
2023-04-16T06:34:11.064Z,21.26
2023-04-16T06:49:12.756Z,21.25
2023-04-16T07:04:14.579Z,21.27
2023-04-16T07:19:16.265Z,21.26
2023-04-16T07:34:17.995Z,21.24
2023-04-16T07:49:19.945Z,21.25
2023-04-16T08:04:21.971Z,21.35
2023-04-16T08:19:23.854Z,21.36
2023-04-16T08:34:25.680Z,21.38
2023-04-16T08:49:27.391Z,21.39
2023-04-16T09:04:29.844Z,21.39
2023-04-16T09:19:31.703Z,21.41
2023-04-16T09:34:34.557Z,21.41
2023-04-16T09:49:42.113Z,21.41
2023-04-16T10:04:50.671Z,21.42
2023-04-16T10:19:53.650Z,21.41
2023-04-16T10:34:56.156Z,21.41
2023-04-16T10:49:58.366Z,21.41
2023-04-16T11:05:02.097Z,21.43
2023-04-16T11:20:17.447Z,21.45
2023-04-16T11:35:21.519Z,21.43
2023-04-16T11:50:25.645Z,21.42
2023-04-16T12:05:33.115Z,21.43
2023-04-16T12:20:40.565Z,21.46
2023-04-16T12:35:42.555Z,21.46
2023-04-16T12:50:44.250Z,21.45
2023-04-16T13:05:46.064Z,21.48
2023-04-16T13:20:47.741Z,21.48
2023-04-16T13:35:50.405Z,21.48
2023-04-16T13:50:52.129Z,21.48
2023-04-16T14:05:53.866Z,21.47
2023-04-16T14:20:55.540Z,21.49
2023-04-16T14:35:57.203Z,21.50
2023-04-16T14:50:58.946Z,21.52
2023-04-16T15:06:00.839Z,21.50
2023-04-16T15:21:02.885Z,21.50
2023-04-16T15:36:04.815Z,21.49
2023-04-16T15:51:06.673Z,21.48
2023-04-16T16:06:08.380Z,21.48
2023-04-16T16:21:10.238Z,21.48
2023-04-16T16:36:12.782Z,21.48
2023-04-16T16:51:14.465Z,21.46
2023-04-16T17:06:20.360Z,21.45
2023-04-16T17:21:22.098Z,21.43
2023-04-16T17:36:23.790Z,21.47
2023-04-16T17:51:25.531Z,21.49
2023-04-16T18:06:27.286Z,21.50
2023-04-16T18:21:29.034Z,21.50
2023-04-16T18:36:31.157Z,21.48
2023-04-16T18:51:33.002Z,21.46
2023-04-16T19:06:35.602Z,21.47
2023-04-16T19:21:37.471Z,21.42
2023-04-16T19:36:39.276Z,21.38
2023-04-16T19:51:41.010Z,21.34
2023-04-16T20:06:42.666Z,21.29
2023-04-16T20:21:44.367Z,21.24
2023-04-16T20:36:46.106Z,21.23
2023-04-16T20:51:47.825Z,21.18
2023-04-16T21:06:49.637Z,21.15
2023-04-16T21:21:51.305Z,21.11
2023-04-16T21:36:52.951Z,21.05
2023-04-16T21:51:54.653Z,21.01
2023-04-16T22:06:56.323Z,20.96
2023-04-16T22:21:58.011Z,20.94
2023-04-16T22:36:59.672Z,20.91
2023-04-16T22:52:01.427Z,20.97
2023-04-16T23:07:03.110Z,21.01
2023-04-16T23:22:04.762Z,21.04
2023-04-16T23:37:06.392Z,21.06
2023-04-16T23:52:08.160Z,21.10
